createdAt,value
2018-06-18T00:01:21.807Z,17.90
2018-06-18T00:06:19.555Z,17.80
2018-06-18T00:08:48.369Z,17.80
2018-06-18T00:11:17.061Z,17.80
2018-06-18T00:13:46.223Z,17.80
2018-06-18T00:16:14.957Z,17.80
2018-06-18T00:18:43.895Z,17.80
2018-06-18T00:21:12.827Z,17.90
2018-06-18T00:26:10.761Z,17.80
2018-06-18T00:28:39.585Z,17.90
2018-06-18T00:31:09.333Z,17.80
2018-06-18T00:33:38.169Z,17.80
2018-06-18T00:36:07.127Z,17.80
2018-06-18T00:38:36.025Z,17.80
2018-06-18T00:41:09.044Z,17.80
2018-06-18T00:43:38.061Z,17.80
2018-06-18T00:46:06.979Z,17.80
2018-06-18T00:48:35.873Z,17.70
2018-06-18T00:51:04.761Z,17.70
2018-06-18T00:53:33.641Z,17.70
2018-06-18T00:56:11.606Z,17.70
2018-06-18T00:58:41.116Z,17.60
2018-06-18T01:01:10.760Z,17.60
2018-06-18T01:03:39.669Z,17.60
2018-06-18T01:06:08.709Z,17.50
2018-06-18T01:08:37.662Z,17.50
2018-06-18T01:11:06.840Z,17.50
2018-06-18T01:13:35.627Z,17.40
2018-06-18T01:18:32.951Z,17.40
2018-06-18T01:21:01.953Z,17.40
2018-06-18T01:24:11.307Z,17.40
2018-06-18T01:26:40.123Z,17.40
2018-06-18T01:31:37.623Z,17.30
2018-06-18T01:34:13.405Z,17.30
2018-06-18T01:36:42.248Z,17.30
2018-06-18T01:39:11.092Z,17.30
2018-06-18T01:41:40.053Z,17.30
2018-06-18T01:44:08.945Z,17.30
2018-06-18T01:46:37.767Z,17.20
2018-06-18T01:51:35.191Z,17.20
2018-06-18T01:54:03.997Z,17.20
2018-06-18T01:56:32.817Z,17.10
2018-06-18T01:59:01.634Z,17.10
2018-06-18T02:01:30.959Z,17.00
2018-06-18T02:03:59.906Z,17.00
2018-06-18T02:06:28.651Z,17.00
2018-06-18T02:08:57.550Z,17.00
2018-06-18T02:11:26.389Z,17.00
2018-06-18T02:13:55.295Z,17.00
2018-06-18T02:16:24.138Z,17.00
2018-06-18T02:18:53.094Z,17.00
2018-06-18T02:21:22.528Z,16.90
2018-06-18T02:23:51.368Z,16.90
2018-06-18T02:26:20.296Z,16.80
2018-06-18T02:28:54.440Z,16.80
2018-06-18T02:31:28.891Z,16.70
2018-06-18T02:34:02.976Z,16.80
2018-06-18T02:36:37.435Z,16.70
2018-06-18T02:39:10.073Z,16.70
2018-06-18T02:42:01.802Z,16.70
2018-06-18T02:44:30.606Z,16.60
2018-06-18T02:46:59.409Z,16.60
2018-06-18T02:49:28.153Z,16.70
2018-06-18T02:51:56.977Z,16.60
2018-06-18T02:54:25.851Z,16.60
2018-06-18T02:56:58.397Z,16.60
2018-06-18T02:59:27.319Z,16.60
2018-06-18T03:01:56.099Z,16.60
2018-06-18T03:04:25.206Z,16.50
2018-06-18T03:06:54.008Z,16.50
2018-06-18T03:09:22.831Z,16.50
2018-06-18T03:11:51.652Z,16.40
2018-06-18T03:14:20.594Z,16.40
2018-06-18T03:16:49.400Z,16.40
2018-06-18T03:19:23.517Z,16.40
2018-06-18T03:21:57.503Z,16.30
2018-06-18T03:24:31.512Z,16.30
2018-06-18T03:27:06.655Z,16.30
2018-06-18T03:29:36.244Z,16.30
2018-06-18T03:32:09.392Z,16.20
2018-06-18T03:34:38.249Z,16.30
2018-06-18T03:37:08.835Z,16.20
2018-06-18T03:39:37.776Z,16.30
2018-06-18T03:42:07.158Z,16.20
2018-06-18T03:44:39.806Z,16.20
2018-06-18T03:47:16.338Z,16.20
2018-06-18T03:49:45.232Z,16.20
2018-06-18T03:52:13.999Z,16.30
2018-06-18T03:54:42.803Z,16.30
2018-06-18T03:57:11.666Z,16.30
2018-06-18T03:59:40.526Z,16.30
2018-06-18T04:02:22.428Z,16.30
2018-06-18T04:04:58.762Z,16.30
2018-06-18T04:07:33.755Z,16.40
2018-06-18T04:12:36.870Z,16.50
2018-06-18T04:15:05.790Z,16.60
2018-06-18T04:17:34.724Z,16.70
2018-06-18T04:20:03.668Z,16.80
2018-06-18T04:22:32.530Z,16.80
2018-06-18T04:25:01.355Z,16.80
2018-06-18T04:27:30.226Z,16.80
2018-06-18T04:29:59.135Z,16.80
2018-06-18T04:32:27.941Z,16.80
2018-06-18T04:35:00.954Z,16.80
2018-06-18T04:37:29.912Z,16.80
2018-06-18T04:39:58.744Z,16.90
2018-06-18T04:42:32.799Z,17.00
2018-06-18T04:45:06.724Z,17.10
2018-06-18T04:47:40.752Z,17.20
2018-06-18T04:50:14.800Z,17.40
2018-06-18T04:52:43.984Z,17.40
2018-06-18T04:55:12.830Z,17.40
2018-06-18T04:57:41.668Z,17.40
2018-06-18T05:02:44.302Z,17.30
2018-06-18T05:05:13.116Z,17.30
2018-06-18T05:07:42.103Z,17.30
2018-06-18T05:10:23.238Z,17.30
2018-06-18T05:12:52.210Z,17.40
2018-06-18T05:15:26.196Z,17.50
2018-06-18T05:17:55.071Z,17.70
2018-06-18T05:20:24.676Z,17.80
2018-06-18T05:22:53.774Z,17.80
2018-06-18T05:25:22.667Z,17.90
2018-06-18T05:27:53.459Z,17.70
2018-06-18T05:30:30.942Z,17.70
2018-06-18T05:38:05.495Z,17.90
2018-06-18T05:40:34.254Z,17.80
2018-06-18T05:43:03.209Z,17.80
2018-06-18T05:45:31.985Z,17.80
2018-06-18T05:48:01.151Z,18.00
2018-06-18T05:50:30.119Z,18.00
2018-06-18T05:52:59.761Z,18.10
2018-06-18T05:55:28.634Z,18.10
2018-06-18T05:57:57.619Z,17.90
2018-06-18T06:00:26.441Z,17.70
2018-06-18T06:02:55.345Z,17.60
2018-06-18T06:05:24.085Z,17.60
2018-06-18T06:07:52.932Z,17.60
2018-06-18T06:10:21.745Z,17.50
2018-06-18T06:12:50.582Z,17.50
2018-06-18T06:15:19.431Z,17.60
2018-06-18T06:17:48.308Z,17.70
2018-06-18T06:20:17.325Z,17.90
2018-06-18T06:22:46.188Z,18.00
2018-06-18T06:25:15.105Z,18.10
2018-06-18T06:27:46.347Z,18.10
2018-06-18T06:30:15.390Z,18.30
2018-06-18T06:32:44.266Z,18.40
2018-06-18T06:35:22.575Z,18.60
2018-06-18T06:37:51.491Z,18.70
2018-06-18T06:40:20.317Z,19.00
2018-06-18T06:42:49.245Z,19.20
2018-06-18T06:45:18.195Z,19.80
2018-06-18T06:47:46.985Z,20.60
2018-06-18T06:50:15.955Z,21.60
2018-06-18T06:52:44.811Z,22.30
2018-06-18T06:55:13.487Z,22.50
2018-06-18T06:57:42.277Z,22.60
2018-06-18T07:00:10.995Z,22.60
2018-06-18T07:02:39.877Z,22.80
2018-06-18T07:05:08.707Z,22.40
2018-06-18T07:07:37.657Z,22.10
2018-06-18T07:10:06.431Z,22.10
2018-06-18T07:15:03.829Z,22.30
2018-06-18T07:17:32.568Z,22.30
2018-06-18T07:20:01.586Z,22.60
2018-06-18T07:22:30.418Z,23.20
2018-06-18T07:24:59.217Z,23.30
2018-06-18T07:27:27.997Z,22.80
2018-06-18T07:29:56.798Z,22.70
2018-06-18T07:32:25.724Z,22.30
2018-06-18T07:34:54.493Z,22.30
2018-06-18T07:37:23.392Z,22.30
2018-06-18T07:39:53.460Z,22.20
2018-06-18T07:42:22.234Z,22.10
2018-06-18T07:44:51.112Z,21.90
2018-06-18T07:47:19.869Z,22.10
2018-06-18T07:49:48.757Z,22.00
2018-06-18T07:52:17.655Z,22.30
2018-06-18T07:54:46.470Z,22.40
2018-06-18T07:57:15.260Z,22.40
2018-06-18T07:59:44.208Z,22.40
2018-06-18T08:02:13.409Z,22.50
2018-06-18T08:04:42.209Z,22.70
2018-06-18T08:07:10.992Z,23.00
2018-06-18T08:09:39.967Z,23.10
2018-06-18T08:12:09.002Z,23.20
2018-06-18T08:14:37.785Z,23.30
2018-06-18T08:17:06.572Z,23.30
2018-06-18T08:19:35.382Z,23.60
2018-06-18T08:22:04.202Z,23.50
2018-06-18T08:24:33.056Z,23.70
2018-06-18T08:27:02.176Z,23.90
2018-06-18T08:29:31.127Z,24.00
2018-06-18T08:32:00.045Z,24.20
2018-06-18T08:34:28.936Z,24.30
2018-06-18T08:36:57.914Z,24.40
2018-06-18T08:39:26.784Z,24.40
2018-06-18T08:41:55.696Z,24.30
2018-06-18T08:44:24.543Z,24.30
2018-06-18T08:46:53.628Z,24.10
2018-06-18T08:49:22.834Z,24.20
2018-06-18T08:51:56.830Z,24.30
2018-06-18T08:54:30.879Z,24.10
2018-06-18T08:57:05.064Z,24.30
2018-06-18T08:59:39.317Z,24.40
2018-06-18T09:02:08.286Z,24.60
2018-06-18T09:04:42.425Z,24.40
2018-06-18T09:07:11.312Z,24.20
2018-06-18T09:09:40.240Z,24.00
2018-06-18T09:12:08.690Z,24.00
2018-06-18T09:14:37.808Z,24.20
2018-06-18T09:17:06.776Z,23.90
2018-06-18T09:19:36.634Z,23.50
2018-06-18T09:22:05.960Z,23.80
2018-06-18T09:24:35.225Z,23.80
2018-06-18T09:27:09.391Z,23.90
2018-06-18T09:29:38.236Z,23.90
2018-06-18T09:32:11.213Z,23.80
2018-06-18T09:34:40.008Z,23.70
2018-06-18T09:37:09.364Z,23.80
2018-06-18T09:39:38.261Z,24.20
2018-06-18T09:42:07.375Z,24.40
2018-06-18T09:44:36.253Z,24.30
2018-06-18T09:47:05.092Z,24.10
2018-06-18T09:49:39.263Z,23.90
2018-06-18T09:52:13.244Z,24.20
2018-06-18T09:54:47.382Z,24.30
2018-06-18T09:57:28.050Z,24.70
2018-06-18T10:00:03.596Z,24.80
2018-06-18T10:02:32.489Z,24.70
2018-06-18T10:05:01.366Z,24.40
2018-06-18T10:07:30.249Z,24.50
2018-06-18T10:09:59.061Z,24.20
2018-06-18T10:12:28.085Z,24.30
2018-06-18T10:14:57.041Z,23.80
2018-06-18T10:17:26.403Z,23.90
2018-06-18T10:19:55.324Z,23.90
2018-06-18T10:22:24.351Z,24.10
2018-06-18T10:24:53.902Z,23.90
2018-06-18T10:27:22.731Z,23.70
2018-06-18T10:29:51.558Z,23.70
2018-06-18T10:32:25.526Z,23.90
2018-06-18T10:34:59.590Z,24.10
2018-06-18T10:37:33.597Z,24.20
2018-06-18T10:40:07.525Z,24.40
2018-06-18T10:42:42.186Z,24.30
2018-06-18T10:47:39.582Z,23.90
2018-06-18T10:50:08.456Z,23.60
2018-06-18T10:52:37.983Z,23.60
2018-06-18T10:55:06.833Z,23.40
2018-06-18T10:57:35.815Z,23.50
2018-06-18T11:00:06.979Z,23.60
2018-06-18T11:02:35.883Z,23.70
2018-06-18T11:05:04.705Z,23.80
2018-06-18T11:07:33.807Z,23.80
2018-06-18T11:10:02.782Z,23.50
2018-06-18T11:12:31.717Z,23.60
2018-06-18T11:15:00.607Z,23.50
2018-06-18T11:17:34.923Z,23.40
2018-06-18T11:20:09.252Z,23.30
2018-06-18T11:22:43.379Z,23.10
2018-06-18T11:25:17.410Z,23.20
2018-06-18T11:30:14.950Z,25.00
2018-06-18T11:32:43.837Z,26.70
2018-06-18T11:35:12.736Z,28.10
2018-06-18T11:37:41.631Z,29.30
2018-06-18T11:40:10.330Z,30.00
2018-06-18T11:42:39.105Z,31.10
2018-06-18T11:45:07.945Z,31.80
2018-06-18T11:47:36.828Z,31.80
2018-06-18T11:50:05.799Z,31.90
2018-06-18T11:52:34.686Z,32.20
2018-06-18T11:55:03.596Z,32.40
2018-06-18T12:00:06.747Z,33.40
2018-06-18T12:02:40.687Z,32.80
2018-06-18T12:05:14.750Z,32.70
2018-06-18T12:07:48.726Z,32.50
2018-06-18T12:10:17.692Z,32.80
2018-06-18T12:12:46.507Z,32.90
2018-06-18T12:17:43.713Z,33.60
2018-06-18T12:20:14.665Z,33.70
2018-06-18T12:22:43.594Z,33.00
2018-06-18T12:25:12.375Z,32.80
2018-06-18T12:27:41.258Z,32.10
2018-06-18T12:30:10.190Z,32.00
2018-06-18T12:35:07.800Z,32.50
2018-06-18T12:37:36.700Z,33.00
2018-06-18T12:40:05.590Z,34.20
2018-06-18T12:42:34.653Z,34.50
2018-06-18T12:45:08.926Z,34.50
2018-06-18T12:47:43.152Z,34.50
2018-06-18T12:50:17.560Z,33.50
2018-06-18T12:53:06.033Z,33.60
2018-06-18T12:55:40.137Z,34.20
2018-06-18T12:58:09.096Z,34.20
2018-06-18T13:00:38.043Z,34.60
2018-06-18T13:03:11.858Z,33.80
2018-06-18T13:05:40.744Z,32.80
2018-06-18T13:10:37.954Z,31.70
2018-06-18T13:13:06.788Z,31.10
2018-06-18T13:15:36.134Z,30.30
2018-06-18T13:18:08.985Z,30.30
2018-06-18T13:20:37.747Z,30.20
2018-06-18T13:23:06.708Z,29.90
2018-06-18T13:25:35.584Z,30.30
2018-06-18T13:28:16.249Z,30.60
2018-06-18T13:30:45.572Z,31.00
2018-06-18T13:33:14.383Z,31.50
2018-06-18T13:35:43.169Z,32.10
2018-06-18T13:38:17.306Z,32.10
2018-06-18T13:43:25.383Z,30.40
2018-06-18T13:45:58.394Z,31.00
2018-06-18T13:48:32.508Z,31.10
2018-06-18T13:51:01.316Z,31.70
2018-06-18T13:53:30.232Z,31.00
2018-06-18T13:55:58.998Z,29.60
2018-06-18T13:58:27.813Z,28.30
2018-06-18T14:00:56.867Z,28.20
2018-06-18T14:03:25.642Z,29.20
2018-06-18T14:06:08.626Z,29.90
2018-06-18T14:08:37.377Z,29.20
2018-06-18T14:11:06.287Z,29.10
2018-06-18T14:13:35.323Z,28.90
2018-06-18T14:16:04.465Z,28.50
2018-06-18T14:18:33.335Z,28.40
2018-06-18T14:21:02.229Z,29.30
2018-06-18T14:23:31.160Z,29.60
2018-06-18T14:25:59.969Z,29.10
2018-06-18T14:28:29.131Z,28.70
2018-06-18T14:31:03.284Z,28.50
2018-06-18T14:33:37.499Z,28.80
2018-06-18T14:36:19.285Z,28.70
2018-06-18T14:38:53.400Z,28.30
2018-06-18T14:41:22.181Z,27.50
2018-06-18T14:43:51.141Z,27.00
2018-06-18T14:46:20.057Z,26.70
2018-06-18T14:48:48.986Z,26.60
2018-06-18T14:51:17.777Z,26.40
2018-06-18T14:53:46.847Z,26.20
2018-06-18T14:56:21.615Z,26.40
2018-06-18T14:59:10.122Z,26.50
2018-06-18T15:01:39.213Z,26.60
2018-06-18T15:04:08.180Z,26.60
2018-06-18T15:06:36.916Z,26.80
2018-06-18T15:09:09.089Z,26.70
2018-06-18T15:11:37.894Z,26.40
2018-06-18T15:14:06.696Z,26.20
2018-06-18T15:16:35.540Z,26.00
2018-06-18T15:19:04.452Z,25.90
2018-06-18T15:21:36.824Z,25.90
2018-06-18T15:24:09.022Z,25.90
2018-06-18T15:29:07.227Z,26.00
2018-06-18T15:31:36.149Z,26.00
2018-06-18T15:34:05.090Z,25.90
2018-06-18T15:36:33.969Z,25.60
2018-06-18T15:39:02.977Z,25.30
2018-06-18T15:41:31.825Z,25.20
2018-06-18T15:44:00.672Z,25.10
2018-06-18T15:46:33.317Z,25.10
2018-06-18T15:49:02.126Z,25.40
2018-06-18T15:51:31.076Z,25.60
2018-06-18T15:53:59.898Z,25.90
2018-06-18T15:56:28.677Z,26.10
2018-06-18T15:58:57.466Z,26.30
2018-06-18T16:01:26.355Z,26.50
2018-06-18T16:04:06.847Z,26.80
2018-06-18T16:07:06.220Z,26.70
2018-06-18T16:09:35.893Z,26.30
2018-06-18T16:12:04.732Z,25.90
2018-06-18T16:14:33.593Z,25.80
2018-06-18T16:17:02.582Z,25.80
2018-06-18T16:19:31.368Z,25.90
2018-06-18T16:22:00.218Z,26.20
2018-06-18T16:24:29.030Z,26.20
2018-06-18T16:26:57.842Z,26.20
2018-06-18T16:29:26.757Z,26.10
2018-06-18T16:31:55.536Z,25.80
2018-06-18T16:34:24.534Z,25.70
2018-06-18T16:36:53.354Z,25.70
2018-06-18T16:39:22.234Z,25.50
2018-06-18T16:41:56.407Z,25.30
2018-06-18T16:44:25.320Z,25.20
2018-06-18T16:46:54.230Z,24.90
2018-06-18T16:49:23.176Z,24.70
2018-06-18T16:51:52.275Z,24.70
2018-06-18T16:54:21.436Z,24.70
2018-06-18T16:56:50.366Z,24.70
2018-06-18T16:59:19.241Z,24.70
2018-06-18T17:01:48.063Z,24.60
2018-06-18T17:04:16.846Z,24.40
2018-06-18T17:06:51.122Z,24.40
2018-06-18T17:09:20.785Z,24.30
2018-06-18T17:11:49.599Z,24.30
2018-06-18T17:16:46.768Z,24.10
2018-06-18T17:19:15.704Z,23.90
2018-06-18T17:21:44.526Z,23.80
2018-06-18T17:24:13.244Z,23.70
2018-06-18T17:26:42.011Z,23.60
2018-06-18T17:29:10.887Z,23.60
2018-06-18T17:31:39.742Z,23.60
2018-06-18T17:34:08.661Z,23.50
2018-06-18T17:36:37.464Z,23.40
2018-06-18T17:39:09.535Z,23.40
2018-06-18T17:41:38.364Z,23.30
2018-06-18T17:44:07.283Z,23.30
2018-06-18T17:46:36.463Z,23.20
2018-06-18T17:49:05.542Z,23.20
2018-06-18T17:51:35.252Z,23.20
2018-06-18T17:54:04.059Z,23.10
2018-06-18T17:56:32.917Z,23.10
2018-06-18T17:59:01.807Z,23.20
2018-06-18T18:01:30.999Z,23.30
2018-06-18T18:04:00.847Z,23.30
2018-06-18T18:06:29.771Z,23.30
2018-06-18T18:08:58.769Z,23.30
2018-06-18T18:11:27.731Z,23.30
2018-06-18T18:13:56.537Z,23.20
2018-06-18T18:16:27.355Z,23.20
2018-06-18T18:18:56.161Z,23.10
2018-06-18T18:21:24.947Z,23.10
2018-06-18T18:23:53.998Z,23.10
2018-06-18T18:26:23.200Z,23.10
2018-06-18T18:28:52.054Z,23.00
2018-06-18T18:31:20.918Z,23.00
2018-06-18T18:33:49.925Z,22.90
2018-06-18T18:36:18.759Z,22.80
2018-06-18T18:38:47.578Z,22.70
2018-06-18T18:41:17.556Z,22.70
2018-06-18T18:43:46.368Z,22.60
2018-06-18T18:46:15.109Z,22.50
2018-06-18T18:48:43.934Z,22.50
2018-06-18T18:51:12.923Z,22.40
2018-06-18T18:53:41.744Z,22.30
2018-06-18T18:56:21.763Z,22.20
2018-06-18T18:59:29.180Z,22.10
2018-06-18T19:01:58.495Z,22.00
2018-06-18T19:04:38.136Z,21.90
2018-06-18T19:07:07.598Z,21.80
2018-06-18T19:09:43.349Z,21.70
2018-06-18T19:12:12.497Z,21.60
2018-06-18T19:14:41.479Z,21.50
2018-06-18T19:17:10.431Z,21.50
2018-06-18T19:19:44.908Z,21.40
2018-06-18T19:22:13.989Z,21.30
2018-06-18T19:24:43.788Z,21.30
2018-06-18T19:27:12.593Z,21.20
2018-06-18T19:29:41.625Z,21.10
2018-06-18T19:32:10.577Z,21.10
2018-06-18T19:34:42.805Z,21.00
2018-06-18T19:37:11.636Z,20.90
2018-06-18T19:39:43.493Z,20.90
2018-06-18T19:42:12.837Z,20.80
2018-06-18T19:44:47.007Z,20.80
2018-06-18T19:47:49.641Z,20.70
2018-06-18T19:50:18.861Z,20.70
2018-06-18T19:52:47.785Z,20.60
2018-06-18T19:55:21.883Z,20.50
2018-06-18T19:57:50.825Z,20.40
2018-06-18T20:02:48.463Z,20.30
2018-06-18T20:05:17.548Z,20.30
2018-06-18T20:07:57.021Z,20.30
2018-06-18T20:10:26.135Z,20.30
2018-06-18T20:12:55.238Z,20.20
2018-06-18T20:15:24.795Z,20.10
2018-06-18T20:17:57.443Z,20.10
2018-06-18T20:20:26.326Z,20.00
2018-06-18T20:22:55.133Z,20.00
2018-06-18T20:25:28.348Z,19.90
2018-06-18T20:27:57.119Z,19.90
2018-06-18T20:30:26.029Z,19.80
2018-06-18T20:32:54.859Z,19.80
2018-06-18T20:35:28.292Z,19.70
2018-06-18T20:37:57.490Z,19.70
2018-06-18T20:40:26.953Z,19.70
2018-06-18T20:42:56.125Z,19.60
2018-06-18T20:45:25.119Z,19.60
2018-06-18T20:47:53.980Z,19.60
2018-06-18T20:50:22.968Z,19.50
2018-06-18T20:52:51.741Z,19.50
2018-06-18T20:55:20.739Z,19.40
2018-06-18T20:57:49.717Z,19.40
2018-06-18T21:00:18.522Z,19.30
2018-06-18T21:02:48.884Z,19.20
2018-06-18T21:05:17.763Z,19.10
2018-06-18T21:07:46.834Z,19.10
2018-06-18T21:10:16.655Z,19.00
2018-06-18T21:12:45.471Z,18.90
2018-06-18T21:15:14.361Z,18.80
2018-06-18T21:17:43.335Z,18.80
2018-06-18T21:20:12.144Z,18.70
2018-06-18T21:22:41.185Z,18.60
2018-06-18T21:25:10.082Z,18.60
2018-06-18T21:27:38.907Z,18.50
2018-06-18T21:30:08.612Z,18.50
2018-06-18T21:32:37.686Z,18.40
2018-06-18T21:35:06.940Z,18.40
2018-06-18T21:37:35.937Z,18.40
2018-06-18T21:40:04.813Z,18.30
2018-06-18T21:42:33.704Z,18.30
2018-06-18T21:45:06.803Z,18.30
2018-06-18T21:47:35.636Z,18.20
2018-06-18T21:50:04.847Z,18.20
2018-06-18T21:52:33.775Z,18.10
2018-06-18T21:55:02.715Z,18.10
2018-06-18T22:00:00.150Z,18.00
2018-06-18T22:02:29.107Z,17.90
2018-06-18T22:04:58.118Z,17.90
2018-06-18T22:07:26.872Z,17.80
2018-06-18T22:09:55.947Z,17.80
2018-06-18T22:12:24.891Z,17.80
2018-06-18T22:14:53.881Z,17.70
2018-06-18T22:17:22.806Z,17.70
2018-06-18T22:19:51.970Z,17.70
2018-06-18T22:22:20.981Z,17.60
2018-06-18T22:24:50.034Z,17.60
2018-06-18T22:27:18.969Z,17.60
2018-06-18T22:29:47.909Z,17.50
2018-06-18T22:32:16.901Z,17.50
2018-06-18T22:34:45.857Z,17.40
2018-06-18T22:37:15.147Z,17.40
2018-06-18T22:39:44.192Z,17.40
2018-06-18T22:42:13.393Z,17.30
2018-06-18T22:44:42.377Z,17.30
2018-06-18T22:47:11.655Z,17.30
2018-06-18T22:49:40.630Z,17.20
2018-06-18T22:52:09.863Z,17.20
2018-06-18T22:57:11.417Z,17.10
2018-06-18T22:59:40.274Z,17.00
2018-06-18T23:02:10.490Z,17.00
2018-06-18T23:04:39.651Z,16.90
2018-06-18T23:07:08.806Z,16.90
2018-06-18T23:09:37.612Z,16.90
2018-06-18T23:12:06.973Z,16.90
2018-06-18T23:14:35.830Z,16.90
2018-06-18T23:17:04.939Z,16.80
2018-06-18T23:19:33.898Z,16.80
2018-06-18T23:22:02.764Z,16.70
2018-06-18T23:24:31.699Z,16.70
2018-06-18T23:27:00.666Z,16.70
2018-06-18T23:29:29.744Z,16.70
2018-06-18T23:31:58.840Z,16.70
2018-06-18T23:34:27.710Z,16.60
2018-06-18T23:36:56.625Z,16.60
2018-06-18T23:39:25.549Z,16.60
2018-06-18T23:41:56.392Z,16.60
2018-06-18T23:44:25.432Z,16.50
2018-06-18T23:46:54.322Z,16.50
2018-06-18T23:49:23.225Z,16.40
2018-06-18T23:51:52.149Z,16.30
2018-06-18T23:54:20.966Z,16.30
2018-06-18T23:56:49.957Z,16.20
2018-06-18T23:59:18.832Z,16.20
